Time;durP1;ratioP1;P1;durP2;ratioP2;P2;SDS_P1;SDS_P2;PMS_P1;PMS_P2;Temp;Humidity;BMP_temperature;BMP_pressure;BME280_temperature;BME280_humidity;BME280_pressure;Samples;Min_cycle;Max_cycle;Signal;HPM_P1;HPM_P2
2023/12/13 00:01:12;;;;;;;;;;;8.40;99.90;;;;;;5044733;28;19951;-71
2023/12/13 00:03:38;;;;;;;;;;;8.40;99.90;;;;;;5044786;28;19909;-72
2023/12/13 00:06:03;;;;;;;;;;;8.40;99.90;;;;;;5044660;28;20194;-71
2023/12/13 00:08:29;;;;;;;;;;;8.40;99.90;;;;;;5043670;28;19905;-70
2023/12/13 00:10:58;;;;;;;;;;;8.40;99.90;;;;;;5044814;28;19913;-72
2023/12/13 00:13:25;;;;;;;;;;;8.40;99.90;;;;;;5044631;28;19909;-71
2023/12/13 00:15:50;;;;;;;;;;;8.40;99.90;;;;;;5040190;28;19990;-71
2023/12/13 00:18:16;;;;;;;;;;;8.30;99.90;;;;;;5041449;28;19932;-73
2023/12/13 00:20:42;;;;;;;;;;;8.30;99.90;;;;;;5044580;28;19916;-71
2023/12/13 00:23:07;;;;;;;;;;;8.20;99.90;;;;;;5076280;28;20186;-73
2023/12/13 00:25:33;;;;;;;;;;;8.20;99.90;;;;;;5044630;28;19941;-72
2023/12/13 00:27:59;;;;;;;;;;;8.20;99.90;;;;;;5044582;28;19909;-72
2023/12/13 00:30:24;;;;;;;;;;;8.10;99.90;;;;;;5044485;28;19968;-73
2023/12/13 00:32:50;;;;;;;;;;;8.00;99.90;;;;;;5044179;28;20191;-74
2023/12/13 00:35:15;;;;;;;;;;;7.90;99.90;;;;;;5063496;28;19916;-72
2023/12/13 00:37:41;;;;;;;;;;;7.80;99.90;;;;;;5024727;28;19961;-72
2023/12/13 00:40:07;;;;;;;;;;;7.70;99.90;;;;;;5039465;28;19915;-72
2023/12/13 00:42:33;;;;;;;;;;;7.60;99.90;;;;;;5024325;28;19945;-72
2023/12/13 00:44:58;;;;;;;;;;;7.50;99.90;;;;;;5024355;28;19905;-71
2023/12/13 00:47:24;;;;;;;;;;;7.40;99.90;;;;;;5024050;28;19984;-72
2023/12/13 00:49:49;;;;;;;;;;;7.30;99.90;;;;;;5023726;28;19981;-72
2023/12/13 00:52:15;;;;;;;;;;;7.20;99.90;;;;;;5030892;28;19955;-71
2023/12/13 00:54:40;;;;;;;;;;;7.20;99.90;;;;;;5043859;28;19944;-73
2023/12/13 00:57:07;;;;;;;;;;;7.20;99.90;;;;;;5075897;28;19916;-71
2023/12/13 00:59:32;;;;;;;;;;;7.20;99.90;;;;;;5043157;28;19929;-72
2023/12/13 01:01:58;;;;;;;;;;;7.20;99.90;;;;;;5043649;28;19940;-73
2023/12/13 01:04:23;;;;;;;;;;;7.30;99.90;;;;;;5042984;28;19908;-71
2023/12/13 01:06:49;;;;;;;;;;;7.30;99.90;;;;;;5043368;28;19928;-72
2023/12/13 01:09:15;;;;;;;;;;;7.30;99.90;;;;;;5042946;28;19963;-73
2023/12/13 01:11:40;;;;;;;;;;;7.40;99.90;;;;;;5038688;28;19945;-72
2023/12/13 01:14:06;;;;;;;;;;;7.40;99.90;;;;;;5043159;28;19920;-71
2023/12/13 01:16:33;;;;;;;;;;;7.40;99.90;;;;;;5043400;28;20107;-72
2023/12/13 01:18:59;;;;;;;;;;;7.40;99.90;;;;;;5043828;28;19909;-73
2023/12/13 01:21:25;;;;;;;;;;;7.40;99.90;;;;;;5042856;28;19924;-72
2023/12/13 01:23:51;;;;;;;;;;;7.30;99.90;;;;;;5043572;28;19909;-71
2023/12/13 01:26:16;;;;;;;;;;;7.30;99.90;;;;;;5042828;28;19966;-72
2023/12/13 01:28:42;;;;;;;;;;;7.30;99.90;;;;;;5030402;28;19937;-70
2023/12/13 01:31:08;;;;;;;;;;;7.30;99.90;;;;;;5042656;28;19916;-70
2023/12/13 01:33:33;;;;;;;;;;;7.30;99.90;;;;;;5043442;28;19913;-70
2023/12/13 01:36:01;;;;;;;;;;;7.30;99.90;;;;;;5043175;28;20245;-70
2023/12/13 01:38:26;;;;;;;;;;;7.30;99.90;;;;;;5042981;28;19932;-72
2023/12/13 01:40:53;;;;;;;;;;;7.30;99.90;;;;;;5043378;28;19940;-71
2023/12/13 01:43:24;;;;;;;;;;;7.30;99.90;;;;;;5043156;28;20122;-72
2023/12/13 01:45:52;;;;;;;;;;;7.40;99.90;;;;;;5041404;28;20072;-73
2023/12/13 01:48:18;;;;;;;;;;;7.50;99.90;;;;;;5022750;28;20011;-70
2023/12/13 01:50:44;;;;;;;;;;;7.50;99.90;;;;;;5023076;28;19921;-72
2023/12/13 01:53:10;;;;;;;;;;;7.50;99.90;;;;;;5038306;28;19952;-71
2023/12/13 01:55:36;;;;;;;;;;;7.60;99.90;;;;;;5023268;28;19909;-72
2023/12/13 01:58:03;;;;;;;;;;;7.60;99.90;;;;;;5023237;28;19912;-70
2023/12/13 02:00:29;;;;;;;;;;;7.60;99.90;;;;;;5022895;28;19909;-71
2023/12/13 02:02:55;;;;;;;;;;;7.50;99.90;;;;;;5031996;28;19945;-73
2023/12/13 02:05:23;;;;;;;;;;;7.60;99.90;;;;;;5041652;28;19912;-72
2023/12/13 02:07:50;;;;;;;;;;;7.50;99.90;;;;;;5043147;28;19917;-72
2023/12/13 02:10:15;;;;;;;;;;;7.40;99.90;;;;;;5042904;28;19987;-72
2023/12/13 02:12:41;;;;;;;;;;;7.40;99.90;;;;;;5047351;28;19940;-72
2023/12/13 02:15:07;;;;;;;;;;;7.40;99.90;;;;;;5046536;28;19948;-72
2023/12/13 02:17:33;;;;;;;;;;;7.40;99.90;;;;;;5046714;28;19917;-71
2023/12/13 02:19:58;;;;;;;;;;;7.40;99.90;;;;;;5036643;28;20088;-71
2023/12/13 02:22:24;;;;;;;;;;;7.40;99.90;;;;;;5026520;28;19914;-72
2023/12/13 02:24:51;;;;;;;;;;;7.30;99.90;;;;;;5026995;28;20100;-72
2023/12/13 02:27:17;;;;;;;;;;;7.30;99.90;;;;;;5026115;28;19944;-72
2023/12/13 02:29:47;;;;;;;;;;;7.30;99.90;;;;;;5058795;28;20130;-73
2023/12/13 02:32:13;;;;;;;;;;;7.30;99.90;;;;;;5026245;28;20138;-71
2023/12/13 02:34:39;;;;;;;;;;;7.30;99.90;;;;;;5026561;28;19912;-73
2023/12/13 02:37:04;;;;;;;;;;;7.30;99.90;;;;;;5034648;28;19912;-72
2023/12/13 02:39:30;;;;;;;;;;;7.30;99.90;;;;;;5046210;28;19963;-71
2023/12/13 02:41:56;;;;;;;;;;;7.30;99.90;;;;;;5046656;28;19909;-72
2023/12/13 02:44:21;;;;;;;;;;;7.30;99.90;;;;;;5046238;28;19909;-72
2023/12/13 02:46:47;;;;;;;;;;;7.40;99.90;;;;;;5046380;28;20139;-73
2023/12/13 02:49:12;;;;;;;;;;;7.30;99.90;;;;;;5046023;28;20144;-74
2023/12/13 02:51:38;;;;;;;;;;;7.40;99.90;;;;;;5046437;28;19944;-73
2023/12/13 02:54:04;;;;;;;;;;;7.40;99.90;;;;;;5039323;28;19958;-72
2023/12/13 02:56:29;;;;;;;;;;;7.40;99.90;;;;;;5057849;28;19913;-73
2023/12/13 02:58:55;;;;;;;;;;;7.40;99.90;;;;;;5026119;28;19980;-73
2023/12/13 03:01:21;;;;;;;;;;;7.40;99.90;;;;;;5025943;28;19932;-71
2023/12/13 03:03:46;;;;;;;;;;;7.40;99.90;;;;;;5041292;28;19905;-72
2023/12/13 03:06:12;;;;;;;;;;;7.40;99.90;;;;;;5045480;28;19913;-73
2023/12/13 03:08:37;;;;;;;;;;;7.30;99.90;;;;;;5045985;28;19909;-71
2023/12/13 03:11:03;;;;;;;;;;;7.40;99.90;;;;;;5041496;28;20194;-71
2023/12/13 03:13:29;;;;;;;;;;;7.40;99.90;;;;;;5045635;28;19917;-72
2023/12/13 03:15:54;;;;;;;;;;;7.40;99.90;;;;;;5045998;28;19916;-73
2023/12/13 03:18:20;;;;;;;;;;;7.40;99.90;;;;;;5045548;28;20127;-72
2023/12/13 03:20:45;;;;;;;;;;;7.50;99.90;;;;;;5078145;28;20150;-73
2023/12/13 03:23:11;;;;;;;;;;;7.50;99.90;;;;;;5044788;28;20095;-73
2023/12/13 03:25:36;;;;;;;;;;;7.50;99.90;;;;;;5045810;28;19913;-74
2023/12/13 03:28:02;;;;;;;;;;;7.60;99.90;;;;;;5041516;28;19945;-73
2023/12/13 03:30:28;;;;;;;;;;;7.70;99.90;;;;;;5025336;28;19925;-71
2023/12/13 03:32:53;;;;;;;;;;;7.70;99.90;;;;;;5025515;28;19909;-72
2023/12/13 03:35:19;;;;;;;;;;;7.70;99.90;;;;;;5025253;28;19910;-72
2023/12/13 03:37:44;;;;;;;;;;;7.60;99.90;;;;;;5025823;28;19909;-72
2023/12/13 03:40:10;;;;;;;;;;;7.60;99.90;;;;;;5025524;28;19928;-72
2023/12/13 03:42:36;;;;;;;;;;;7.70;99.90;;;;;;5025314;28;19909;-75
2023/12/13 03:45:01;;;;;;;;;;;7.60;99.90;;;;;;5029420;28;19909;-71
2023/12/13 03:47:27;;;;;;;;;;;7.50;99.90;;;;;;5045119;28;19905;-72
2023/12/13 03:49:52;;;;;;;;;;;7.50;99.90;;;;;;5045078;28;19929;-72
2023/12/13 03:52:18;;;;;;;;;;;7.40;99.90;;;;;;5044588;28;19917;-74
2023/12/13 03:54:44;;;;;;;;;;;7.40;99.90;;;;;;5045322;28;20225;-72
2023/12/13 03:57:10;;;;;;;;;;;7.30;99.90;;;;;;5044906;28;19909;-73
2023/12/13 03:59:35;;;;;;;;;;;7.20;99.90;;;;;;5044522;28;19909;-72
2023/12/13 04:02:01;;;;;;;;;;;7.10;99.90;;;;;;5046750;28;19906;-70
2023/12/13 04:04:26;;;;;;;;;;;7.00;99.90;;;;;;5050221;28;20293;-71
2023/12/13 04:06:52;;;;;;;;;;;7.00;99.90;;;;;;5049989;28;19916;-70
2023/12/13 04:09:18;;;;;;;;;;;7.00;99.90;;;;;;5046668;28;20248;-73
2023/12/13 04:11:43;;;;;;;;;;;7.00;99.90;;;;;;5044987;28;19920;-72
2023/12/13 04:14:09;;;;;;;;;;;6.90;99.90;;;;;;5044972;28;19913;-73
2023/12/13 04:16:34;;;;;;;;;;;6.90;99.90;;;;;;5044565;28;20090;-74
2023/12/13 04:19:03;;;;;;;;;;;6.90;99.90;;;;;;5039991;28;19909;-72
2023/12/13 04:21:28;;;;;;;;;;;6.90;99.90;;;;;;5044345;28;20099;-73
2023/12/13 04:23:54;;;;;;;;;;;6.90;99.90;;;;;;5044813;28;19945;-72
2023/12/13 04:26:22;;;;;;;;;;;6.90;99.90;;;;;;5044375;28;19916;-73
2023/12/13 04:28:48;;;;;;;;;;;6.90;99.90;;;;;;5076459;28;19909;-74
2023/12/13 04:31:13;;;;;;;;;;;6.90;99.90;;;;;;5044506;28;19925;-73
2023/12/13 04:33:39;;;;;;;;;;;6.80;99.90;;;;;;5043991;28;19916;-72
2023/12/13 04:36:04;;;;;;;;;;;6.90;99.90;;;;;;5034886;28;20243;-72
2023/12/13 04:38:30;;;;;;;;;;;6.80;99.90;;;;;;5024127;28;19905;-72
2023/12/13 04:40:56;;;;;;;;;;;6.80;99.90;;;;;;5024854;28;19940;-72
2023/12/13 04:43:21;;;;;;;;;;;6.80;99.90;;;;;;5024322;28;20095;-71
2023/12/13 04:45:51;;;;;;;;;;;6.80;99.90;;;;;;5039336;28;19992;-74
2023/12/13 04:48:16;;;;;;;;;;;6.80;99.90;;;;;;5043777;28;19909;-73
2023/12/13 04:50:42;;;;;;;;;;;6.80;99.90;;;;;;5044201;28;19967;-73
2023/12/13 04:53:07;;;;;;;;;;;6.80;99.90;;;;;;5043900;28;19909;-71
2023/12/13 04:55:33;;;;;;;;;;;6.80;99.90;;;;;;5043482;28;19915;-74
2023/12/13 04:57:58;;;;;;;;;;;6.80;99.90;;;;;;5044104;28;19955;-73
2023/12/13 05:00:24;;;;;;;;;;;6.80;99.90;;;;;;5042177;28;19905;-73
2023/12/13 05:02:50;;;;;;;;;;;6.80;99.90;;;;;;5066908;28;19951;-72
2023/12/13 05:05:15;;;;;;;;;;;6.80;99.90;;;;;;5043771;28;19909;-73
2023/12/13 05:07:44;;;;;;;;;;;6.80;99.90;;;;;;5044039;28;19905;-71
2023/12/13 05:10:09;;;;;;;;;;;6.80;99.90;;;;;;5043984;28;19920;-72
2023/12/13 05:12:35;;;;;;;;;;;6.80;99.90;;;;;;5075551;28;19913;-73
2023/12/13 05:15:00;;;;;;;;;;;6.80;99.90;;;;;;5043442;28;19905;-72
2023/12/13 05:17:26;;;;;;;;;;;6.70;99.90;;;;;;5037990;28;19916;-72
2023/12/13 05:19:51;;;;;;;;;;;6.70;99.90;;;;;;5024040;28;19980;-74
2023/12/13 05:22:17;;;;;;;;;;;6.70;99.90;;;;;;5023256;28;19929;-73
2023/12/13 05:24:42;;;;;;;;;;;6.80;99.90;;;;;;5023666;28;20075;-71
2023/12/13 05:27:08;;;;;;;;;;;6.70;99.90;;;;;;5023575;28;19972;-72
2023/12/13 05:29:34;;;;;;;;;;;6.70;99.90;;;;;;5023367;28;19909;-74
2023/12/13 05:31:59;;;;;;;;;;;6.80;99.90;;;;;;5023577;28;19913;-70
2023/12/13 05:34:25;;;;;;;;;;;6.70;99.90;;;;;;5064766;28;19909;-71
2023/12/13 05:36:50;;;;;;;;;;;6.80;99.90;;;;;;5043243;28;19940;-74
2023/12/13 05:39:16;;;;;;;;;;;6.80;99.90;;;;;;5043478;28;20091;-73
2023/12/13 05:41:42;;;;;;;;;;;6.80;99.90;;;;;;5042973;28;19909;-73
2023/12/13 05:44:07;;;;;;;;;;;6.80;99.90;;;;;;5043388;28;20094;-73
2023/12/13 05:46:34;;;;;;;;;;;6.80;99.90;;;;;;5075016;28;20209;-73
2023/12/13 05:49:03;;;;;;;;;;;6.80;99.90;;;;;;5042712;28;19917;-74
2023/12/13 05:51:29;;;;;;;;;;;6.80;99.90;;;;;;5026588;28;19909;-72
2023/12/13 05:53:54;;;;;;;;;;;6.80;99.90;;;;;;5023191;28;19976;-71
2023/12/13 05:56:20;;;;;;;;;;;6.90;99.90;;;;;;5022941;28;19916;-72
2023/12/13 05:58:45;;;;;;;;;;;6.80;99.90;;;;;;5023112;28;19952;-71
2023/12/13 06:01:11;;;;;;;;;;;6.90;99.90;;;;;;5023214;28;19914;-72
2023/12/13 06:03:39;;;;;;;;;;;6.80;99.90;;;;;;5038556;28;19916;-73
2023/12/13 06:06:04;;;;;;;;;;;6.80;99.90;;;;;;5041796;28;19913;-74
2023/12/13 06:08:30;;;;;;;;;;;6.80;99.90;;;;;;5029233;28;19909;-73
2023/12/13 06:10:56;;;;;;;;;;;6.80;99.90;;;;;;5022699;28;20247;-74
2023/12/13 06:13:22;;;;;;;;;;;6.80;99.90;;;;;;5022763;28;20187;-74
2023/12/13 06:15:48;;;;;;;;;;;6.80;99.90;;;;;;5054944;28;19917;-72
2023/12/13 06:18:13;;;;;;;;;;;6.90;99.90;;;;;;5022959;28;20202;-71
2023/12/13 06:20:39;;;;;;;;;;;6.90;99.90;;;;;;5022726;28;19905;-71
2023/12/13 06:23:04;;;;;;;;;;;6.90;99.90;;;;;;5023124;28;19932;-71
2023/12/13 06:25:30;;;;;;;;;;;7.00;99.90;;;;;;5036865;28;19909;-72
2023/12/13 06:27:55;;;;;;;;;;;7.00;99.90;;;;;;5042612;28;19943;-72
2023/12/13 06:30:21;;;;;;;;;;;7.10;99.90;;;;;;5042100;28;19924;-74
2023/12/13 06:32:46;;;;;;;;;;;7.10;99.90;;;;;;5074666;28;19991;-73
2023/12/13 06:35:13;;;;;;;;;;;7.20;99.90;;;;;;5042730;28;19905;-74
2023/12/13 06:37:39;;;;;;;;;;;7.20;99.90;;;;;;5042702;28;19909;-71
2023/12/13 06:40:05;;;;;;;;;;;7.20;99.90;;;;;;5074708;28;19909;-71
2023/12/13 06:42:30;;;;;;;;;;;7.20;99.90;;;;;;5032168;28;19906;-72
2023/12/13 06:44:56;;;;;;;;;;;7.30;99.90;;;;;;5022785;28;19956;-75
2023/12/13 06:47:24;;;;;;;;;;;7.30;99.90;;;;;;5022797;28;19917;-73
2023/12/13 06:49:50;;;;;;;;;;;7.40;99.90;;;;;;5022635;28;20091;-73
2023/12/13 06:52:15;;;;;;;;;;;7.40;99.90;;;;;;5022654;28;19931;-72
2023/12/13 06:54:41;;;;;;;;;;;7.50;99.90;;;;;;5022133;28;20343;-73
2023/12/13 06:57:07;;;;;;;;;;;7.50;99.90;;;;;;5041933;28;20183;-72
2023/12/13 06:59:32;;;;;;;;;;;7.70;99.90;;;;;;5034895;28;19972;-73
2023/12/13 07:01:58;;;;;;;;;;;7.80;99.90;;;;;;5045840;28;19932;-73
2023/12/13 07:04:27;;;;;;;;;;;7.90;99.90;;;;;;5045815;28;19912;-72
2023/12/13 07:06:54;;;;;;;;;;;8.10;99.90;;;;;;5039854;28;19909;-71
2023/12/13 07:09:19;;;;;;;;;;;8.20;99.90;;;;;;5063603;28;19914;-73
2023/12/13 07:11:46;;;;;;;;;;;8.40;99.90;;;;;;5042271;28;19955;-72
2023/12/13 07:14:13;;;;;;;;;;;8.50;99.90;;;;;;5027667;28;19910;-72
2023/12/13 07:16:38;;;;;;;;;;;8.60;99.90;;;;;;5043164;28;19916;-73
2023/12/13 07:19:04;;;;;;;;;;;8.70;99.90;;;;;;5025890;28;19972;-73
2023/12/13 07:21:29;;;;;;;;;;;8.70;99.90;;;;;;5025423;28;19909;-71
2023/12/13 07:23:55;;;;;;;;;;;8.70;99.90;;;;;;5037174;28;19917;-71
2023/12/13 07:26:20;;;;;;;;;;;8.70;99.90;;;;;;5045358;28;19977;-71
2023/12/13 07:28:46;;;;;;;;;;;8.70;99.90;;;;;;5044814;28;19956;-73
2023/12/13 07:31:11;;;;;;;;;;;8.70;99.90;;;;;;5045524;28;19913;-71
2023/12/13 07:33:38;;;;;;;;;;;8.70;99.90;;;;;;5045264;28;19956;-73
2023/12/13 07:36:04;;;;;;;;;;;8.80;99.90;;;;;;5040798;28;19955;-72
2023/12/13 07:38:30;;;;;;;;;;;8.80;99.90;;;;;;5039324;28;19909;-72
2023/12/13 07:40:55;;;;;;;;;;;8.80;99.90;;;;;;5035269;28;19936;-72
2023/12/13 07:43:21;;;;;;;;;;;8.80;99.90;;;;;;5045660;28;19984;-71
2023/12/13 07:45:52;;;;;;;;;;;8.80;99.90;;;;;;5076497;28;20183;-72
2023/12/13 07:48:18;;;;;;;;;;;8.80;99.90;;;;;;5045201;28;19905;-72
2023/12/13 07:50:45;;;;;;;;;;;8.80;99.90;;;;;;5044954;28;20094;-73
2023/12/13 07:53:11;;;;;;;;;;;8.80;99.90;;;;;;5036280;28;20095;-72
2023/12/13 07:55:36;;;;;;;;;;;8.80;99.90;;;;;;5056744;28;19936;-73
2023/12/13 07:58:05;;;;;;;;;;;8.80;99.90;;;;;;5025442;28;20206;-73
2023/12/13 08:00:30;;;;;;;;;;;8.80;99.90;;;;;;5063531;28;19912;-73
2023/12/13 08:02:56;;;;;;;;;;;8.80;99.90;;;;;;5056616;28;19920;-73
2023/12/13 08:05:23;;;;;;;;;;;8.90;99.90;;;;;;5044645;28;19913;-73
2023/12/13 08:07:48;;;;;;;;;;;8.90;99.90;;;;;;5044082;28;20127;-71
2023/12/13 08:10:14;;;;;;;;;;;8.90;99.90;;;;;;5043157;28;19937;-73
2023/12/13 08:12:42;;;;;;;;;;;9.00;99.90;;;;;;5026177;28;19932;-73
2023/12/13 08:15:11;;;;;;;;;;;9.00;99.90;;;;;;5068765;28;20172;-73
2023/12/13 08:17:37;;;;;;;;;;;9.00;99.90;;;;;;5043881;28;19906;-72
2023/12/13 08:20:04;;;;;;;;;;;9.00;99.90;;;;;;5033305;28;20211;-73
2023/12/13 08:22:29;;;;;;;;;;;9.00;99.90;;;;;;5040938;28;19979;-73
2023/12/13 08:24:55;;;;;;;;;;;8.90;99.90;;;;;;5044832;28;19913;-73
2023/12/13 08:27:20;;;;;;;;;;;9.00;99.90;;;;;;5040593;28;19924;-73
2023/12/13 08:29:46;;;;;;;;;;;9.00;99.90;;;;;;5043362;28;19940;-73
2023/12/13 08:32:12;;;;;;;;;;;9.00;99.90;;;;;;5044568;28;20095;-71
2023/12/13 08:34:37;;;;;;;;;;;9.00;99.90;;;;;;5044037;28;19948;-71
2023/12/13 08:37:03;;;;;;;;;;;9.00;99.90;;;;;;5041432;28;20231;-71
2023/12/13 08:39:28;;;;;;;;;;;9.00;99.90;;;;;;5041220;28;19909;-73
2023/12/13 08:41:54;;;;;;;;;;;9.10;99.90;;;;;;5044376;28;19917;-71
2023/12/13 08:44:21;;;;;;;;;;;9.10;99.90;;;;;;5062284;28;19947;-72
2023/12/13 08:46:47;;;;;;;;;;;9.10;99.90;;;;;;5063567;28;20163;-72
2023/12/13 08:49:15;;;;;;;;;;;9.10;99.90;;;;;;5063516;28;19925;-72
2023/12/13 08:51:41;;;;;;;;;;;9.20;99.90;;;;;;5056943;28;19947;-72
2023/12/13 08:54:07;;;;;;;;;;;9.20;99.90;;;;;;5053878;28;20099;-73
2023/12/13 08:56:32;;;;;;;;;;;9.20;99.90;;;;;;5063674;28;19913;-73
2023/12/13 08:58:58;;;;;;;;;;;9.10;99.90;;;;;;5063966;28;20068;-72
2023/12/13 09:01:24;;;;;;;;;;;9.10;99.90;;;;;;5063854;28;19911;-72
2023/12/13 09:03:52;;;;;;;;;;;9.10;99.90;;;;;;5047107;28;19917;-71
2023/12/13 09:06:18;;;;;;;;;;;9.10;99.90;;;;;;5043654;28;19909;-72
2023/12/13 09:08:44;;;;;;;;;;;9.20;99.90;;;;;;5043479;28;19943;-71
2023/12/13 09:11:10;;;;;;;;;;;9.30;99.90;;;;;;5047761;28;20241;-71
2023/12/13 09:13:36;;;;;;;;;;;9.40;99.90;;;;;;5055540;28;19909;-71
2023/12/13 09:16:04;;;;;;;;;;;9.60;99.90;;;;;;5042150;28;19906;-71
2023/12/13 09:18:29;;;;;;;;;;;9.70;99.90;;;;;;5043093;28;19913;-72
2023/12/13 09:20:55;;;;;;;;;;;9.80;99.90;;;;;;5042682;28;19931;-72
2023/12/13 09:23:24;;;;;;;;;;;9.90;99.90;;;;;;5043185;28;19909;-72
2023/12/13 09:25:59;;;;;;;;;;;10.00;99.90;;;;;;5042599;28;19909;-71
2023/12/13 09:28:24;;;;;;;;;;;10.10;99.90;;;;;;5043184;28;19967;-71
2023/12/13 09:30:50;;;;;;;;;;;10.10;99.90;;;;;;5042126;28;20388;-71
2023/12/13 09:33:16;;;;;;;;;;;10.00;99.90;;;;;;5049732;28;19909;-71
2023/12/13 09:35:42;;;;;;;;;;;10.10;99.90;;;;;;5062848;28;19904;-73
2023/12/13 09:38:08;;;;;;;;;;;10.20;99.90;;;;;;5047703;28;19909;-71
2023/12/13 09:40:33;;;;;;;;;;;10.20;99.90;;;;;;5053421;28;19908;-71
2023/12/13 09:43:02;;;;;;;;;;;10.20;99.90;;;;;;5050606;28;19951;-71
2023/12/13 09:45:29;;;;;;;;;;;10.30;99.90;;;;;;5042069;28;19969;-71
2023/12/13 09:47:55;;;;;;;;;;;10.30;99.90;;;;;;5054376;28;19948;-72
2023/12/13 09:50:24;;;;;;;;;;;10.30;99.90;;;;;;5039122;28;19924;-72
2023/12/13 09:52:50;;;;;;;;;;;10.30;99.90;;;;;;5047758;28;19922;-73
2023/12/13 09:55:15;;;;;;;;;;;10.30;99.90;;;;;;5031411;28;19980;-72
2023/12/13 09:57:41;;;;;;;;;;;10.30;99.90;;;;;;5074817;28;19906;-72
2023/12/13 10:00:07;;;;;;;;;;;10.20;99.90;;;;;;5028686;28;19940;-72
2023/12/13 10:02:34;;;;;;;;;;;10.20;99.90;;;;;;5027670;28;19909;-72
2023/12/13 10:04:59;;;;;;;;;;;10.20;99.90;;;;;;5042877;28;19949;-72
2023/12/13 10:07:27;;;;;;;;;;;10.20;99.90;;;;;;5043059;28;19909;-73
2023/12/13 10:09:55;;;;;;;;;;;10.20;99.90;;;;;;5042610;28;19992;-72
2023/12/13 10:12:21;;;;;;;;;;;10.20;99.90;;;;;;5041688;28;19905;-73
2023/12/13 10:14:47;;;;;;;;;;;10.20;99.90;;;;;;5041096;28;19983;-72
2023/12/13 10:17:12;;;;;;;;;;;10.20;99.90;;;;;;5042576;28;19979;-73
2023/12/13 10:19:38;;;;;;;;;;;10.20;99.90;;;;;;5039391;28;19913;-73
2023/12/13 10:22:05;;;;;;;;;;;10.20;99.90;;;;;;5022772;28;19963;-72
2023/12/13 10:24:31;;;;;;;;;;;10.20;99.90;;;;;;5022978;28;20226;-73
2023/12/13 10:26:59;;;;;;;;;;;10.20;99.90;;;;;;5025195;28;19905;-71
2023/12/13 10:29:25;;;;;;;;;;;10.20;99.90;;;;;;5042452;28;19940;-73
2023/12/13 10:31:51;;;;;;;;;;;10.30;99.90;;;;;;5042942;28;20191;-72
2023/12/13 10:34:16;;;;;;;;;;;10.30;99.90;;;;;;5043665;28;19951;-72
2023/12/13 10:36:45;;;;;;;;;;;10.30;99.90;;;;;;5056847;28;19908;-73
2023/12/13 10:39:12;;;;;;;;;;;10.30;99.90;;;;;;5061813;28;19916;-73
2023/12/13 10:41:38;;;;;;;;;;;10.40;99.90;;;;;;5047026;28;19905;-73
2023/12/13 10:44:04;;;;;;;;;;;10.50;99.90;;;;;;5045962;28;19909;-72
2023/12/13 10:46:35;;;;;;;;;;;10.80;99.90;;;;;;5046226;28;19916;-72
2023/12/13 10:49:03;;;;;;;;;;;10.90;99.90;;;;;;5045823;28;19921;-73
2023/12/13 10:51:29;;;;;;;;;;;10.80;99.90;;;;;;5048656;28;19915;-73
2023/12/13 10:53:55;;;;;;;;;;;11.00;99.90;;;;;;5056473;28;19980;-72
2023/12/13 10:56:21;;;;;;;;;;;11.20;99.90;;;;;;5056255;28;19936;-72
2023/12/13 10:58:47;;;;;;;;;;;11.10;99.90;;;;;;5045197;28;19916;-71
2023/12/13 11:01:14;;;;;;;;;;;11.20;99.90;;;;;;5044354;28;19913;-73
2023/12/13 11:03:58;;;;;;;;;;;11.80;99.90;;;;;;5045224;28;19906;-72
2023/12/13 11:06:26;;;;;;;;;;;12.10;99.90;;;;;;5045424;28;20195;-72
2023/12/13 11:08:54;;;;;;;;;;;12.70;99.90;;;;;;5045059;28;19909;-73
2023/12/13 11:11:26;;;;;;;;;;;13.30;99.90;;;;;;5045667;28;19908;-72
2023/12/13 11:13:54;;;;;;;;;;;13.80;99.90;;;;;;5041050;28;19916;-72
2023/12/13 11:16:21;;;;;;;;;;;14.40;99.90;;;;;;5045347;28;19909;-73
2023/12/13 11:18:49;;;;;;;;;;;15.50;99.90;;;;;;5044497;28;19911;-72
2023/12/13 11:21:28;;;;;;;;;;;16.00;97.70;;;;;;5045285;28;20080;-73
2023/12/13 11:23:54;;;;;;;;;;;16.90;96.20;;;;;;5044669;28;19909;-73
2023/12/13 11:26:21;;;;;;;;;;;17.20;93.20;;;;;;5045150;28;20127;-74
2023/12/13 11:28:51;;;;;;;;;;;17.10;93.00;;;;;;5044629;28;19909;-75
2023/12/13 11:31:23;;;;;;;;;;;16.90;92.70;;;;;;5040349;28;19992;-74
2023/12/13 11:33:50;;;;;;;;;;;17.40;92.70;;;;;;5044866;28;20241;-76
2023/12/13 11:36:23;;;;;;;;;;;18.20;91.30;;;;;;5045572;28;19909;-75
2023/12/13 11:38:59;;;;;;;;;;;18.60;90.90;;;;;;5044583;28;19972;-76
2023/12/13 11:41:24;;;;;;;;;;;18.40;86.70;;;;;;5045042;28;20179;-73
2023/12/13 11:43:50;;;;;;;;;;;18.00;88.00;;;;;;5044522;28;19980;-73
2023/12/13 11:46:15;;;;;;;;;;;17.80;89.40;;;;;;5042101;28;19940;-75
2023/12/13 11:48:45;;;;;;;;;;;17.20;88.50;;;;;;5024564;28;20148;-73
2023/12/13 11:51:10;;;;;;;;;;;16.80;90.00;;;;;;5057179;28;19926;-74
2023/12/13 11:53:36;;;;;;;;;;;15.80;90.90;;;;;;5024607;28;20135;-75
2023/12/13 11:56:07;;;;;;;;;;;15.00;92.10;;;;;;5025378;28;19906;-74
2023/12/13 11:58:32;;;;;;;;;;;14.30;92.90;;;;;;5025264;28;19913;-74
2023/12/13 12:00:58;;;;;;;;;;;13.60;94.80;;;;;;5024270;28;19932;-77
2023/12/13 12:03:25;;;;;;;;;;;13.20;95.90;;;;;;5064627;28;19905;-73
2023/12/13 12:05:50;;;;;;;;;;;13.00;96.30;;;;;;5044334;28;20190;-73
2023/12/13 12:08:22;;;;;;;;;;;13.10;97.30;;;;;;5045068;28;19913;-75
2023/12/13 12:10:47;;;;;;;;;;;13.60;97.10;;;;;;5043937;28;19917;-76
2023/12/13 12:13:13;;;;;;;;;;;14.50;95.70;;;;;;5044680;28;19909;-78
2023/12/13 12:15:39;;;;;;;;;;;15.30;94.10;;;;;;5044177;28;19909;-77
2023/12/13 12:18:05;;;;;;;;;;;16.50;92.70;;;;;;5027186;28;19958;-77
2023/12/13 12:20:31;;;;;;;;;;;17.40;90.80;;;;;;5032193;28;19910;-76
2023/12/13 12:22:58;;;;;;;;;;;18.40;89.00;;;;;;5023934;28;19910;-77
2023/12/13 12:25:25;;;;;;;;;;;19.10;87.30;;;;;;5039690;28;19984;-77
2023/12/13 12:27:51;;;;;;;;;;;19.80;83.50;;;;;;5043674;28;19993;-76
2023/12/13 12:30:21;;;;;;;;;;;19.30;81.40;;;;;;5044216;28;19917;-77
2023/12/13 12:32:47;;;;;;;;;;;18.70;82.70;;;;;;5044222;28;19968;-77
2023/12/13 12:35:13;;;;;;;;;;;17.80;82.50;;;;;;5046708;28;19916;-77
2023/12/13 12:37:39;;;;;;;;;;;17.70;86.20;;;;;;5041080;28;19909;-75
2023/12/13 12:40:06;;;;;;;;;;;17.10;87.20;;;;;;5025666;28;20182;-77
2023/12/13 12:42:32;;;;;;;;;;;16.80;87.60;;;;;;5053538;28;20098;-77
2023/12/13 12:44:57;;;;;;;;;;;16.00;90.00;;;;;;5056629;28;19978;-78
2023/12/13 12:47:23;;;;;;;;;;;15.60;90.80;;;;;;5071845;28;19927;-77
2023/12/13 12:49:52;;;;;;;;;;;15.60;90.90;;;;;;5056820;28;19927;-77
2023/12/13 12:52:21;;;;;;;;;;;15.80;90.30;;;;;;5054513;28;19921;-77
2023/12/13 12:54:49;;;;;;;;;;;16.70;86.90;;;;;;5051347;28;19928;-77
2023/12/13 12:57:16;;;;;;;;;;;17.40;87.30;;;;;;5032076;28;20072;-77
2023/12/13 12:59:41;;;;;;;;;;;17.50;86.70;;;;;;5045773;28;19947;-77
2023/12/13 13:02:09;;;;;;;;;;;17.10;87.90;;;;;;5043538;28;19909;-76
2023/12/13 13:04:37;;;;;;;;;;;16.80;87.40;;;;;;5043394;28;19982;-77
2023/12/13 13:07:05;;;;;;;;;;;15.90;90.60;;;;;;5043318;28;19909;-76
2023/12/13 13:09:31;;;;;;;;;;;15.10;91.50;;;;;;5042156;28;19952;-77
2023/12/13 13:11:56;;;;;;;;;;;15.00;91.80;;;;;;5041937;28;19917;-77
2023/12/13 13:14:25;;;;;;;;;;;14.40;92.40;;;;;;5036821;28;19916;-77
2023/12/13 13:16:50;;;;;;;;;;;14.10;93.30;;;;;;5043142;28;20202;-76
2023/12/13 13:19:16;;;;;;;;;;;13.60;94.00;;;;;;5043254;28;19909;-76
2023/12/13 13:21:42;;;;;;;;;;;13.50;94.40;;;;;;5042744;28;19916;-77
2023/12/13 13:24:08;;;;;;;;;;;13.20;94.60;;;;;;5043255;28;19952;-77
2023/12/13 13:26:34;;;;;;;;;;;12.90;95.50;;;;;;5043673;28;19916;-76
2023/12/13 13:29:00;;;;;;;;;;;12.60;95.50;;;;;;5043060;28;20183;-77
2023/12/13 13:31:26;;;;;;;;;;;12.40;96.10;;;;;;5027903;28;19921;-77
2023/12/13 13:33:52;;;;;;;;;;;12.20;96.40;;;;;;5054657;28;20218;-77
2023/12/13 13:36:17;;;;;;;;;;;12.20;96.60;;;;;;5055322;28;19932;-77
2023/12/13 13:38:43;;;;;;;;;;;12.20;97.90;;;;;;5065606;28;20205;-77
2023/12/13 13:41:08;;;;;;;;;;;12.10;98.60;;;;;;5075362;28;19931;-76
2023/12/13 13:43:34;;;;;;;;;;;11.80;99.50;;;;;;5043182;28;19944;-76
2023/12/13 13:46:00;;;;;;;;;;;11.50;99.80;;;;;;5039216;28;19905;-77
2023/12/13 13:48:26;;;;;;;;;;;11.30;99.90;;;;;;5023514;28;20123;-78
2023/12/13 13:50:52;;;;;;;;;;;11.30;99.90;;;;;;5031463;28;19997;-76
2023/12/13 13:53:18;;;;;;;;;;;11.00;99.90;;;;;;5042991;28;19909;-76
2023/12/13 13:55:46;;;;;;;;;;;10.60;99.90;;;;;;5042409;28;19937;-77
2023/12/13 13:58:12;;;;;;;;;;;10.00;99.90;;;;;;5043338;28;19932;-76
2023/12/13 14:00:37;;;;;;;;;;;9.70;99.90;;;;;;5042722;28;19905;-75
2023/12/13 14:03:03;;;;;;;;;;;9.40;99.90;;;;;;5042823;28;20297;-75
2023/12/13 14:05:34;;;;;;;;;;;9.10;99.90;;;;;;5075739;28;19909;-75
2023/12/13 14:08:04;;;;;;;;;;;8.90;99.90;;;;;;5033569;28;19913;-76
2023/12/13 14:10:29;;;;;;;;;;;8.80;99.90;;;;;;5027296;28;19918;-76
2023/12/13 14:12:55;;;;;;;;;;;8.80;99.90;;;;;;5026947;28;19917;-76
2023/12/13 14:15:20;;;;;;;;;;;8.70;99.90;;;;;;5040580;28;19976;-76
2023/12/13 14:17:46;;;;;;;;;;;8.50;99.90;;;;;;5049078;28;20157;-78
2023/12/13 14:20:12;;;;;;;;;;;8.30;99.90;;;;;;5048345;28;19909;-78